Time;durP1;ratioP1;P1;durP2;ratioP2;P2;SDS_P1;SDS_P2;PMS_P1;PMS_P2;Temp;Humidity;BMP_temperature;BMP_pressure;BME280_temperature;BME280_humidity;BME280_pressure;Samples;Min_cycle;Max_cycle;Signal;HPM_P1;HPM_P2
2021/10/07 00:01:42;;;;;;;1.13;0.70;;;11.10;99.90;;;;;;4979507;28;20027;-72
2021/10/07 00:04:08;;;;;;;2.95;0.90;;;11.10;99.90;;;;;;4975986;28;20280;-73
2021/10/07 00:06:33;;;;;;;1.50;1.15;;;11.10;99.90;;;;;;4977069;28;20035;-72
2021/10/07 00:08:59;;;;;;;1.58;0.80;;;11.20;99.90;;;;;;4976608;28;20110;-72
2021/10/07 00:11:25;;;;;;;1.60;0.90;;;11.20;99.90;;;;;;4975060;28;20031;-73
2021/10/07 00:13:50;;;;;;;2.80;1.02;;;11.10;99.90;;;;;;4973794;28;20514;-72
2021/10/07 00:16:16;;;;;;;0.82;0.77;;;11.10;99.90;;;;;;4973456;28;20031;-75
2021/10/07 00:18:42;;;;;;;2.38;0.90;;;11.10;99.90;;;;;;4976079;28;20019;-72
2021/10/07 00:21:10;;;;;;;3.63;1.00;;;11.10;99.90;;;;;;4997274;28;20035;-71
2021/10/07 00:23:46;;;;;;;2.90;2.08;;;11.10;99.90;;;;;;4988548;28;20042;-73
2021/10/07 00:26:12;;;;;;;1.98;1.17;;;11.10;99.90;;;;;;5006611;28;20027;-72
2021/10/07 00:28:38;;;;;;;1.98;0.82;;;11.10;99.90;;;;;;4984431;28;20031;-71
2021/10/07 00:31:05;;;;;;;1.77;1.00;;;11.10;99.90;;;;;;4985344;28;20149;-72
2021/10/07 00:33:42;;;;;;;3.47;1.10;;;11.10;99.90;;;;;;4981496;28;20037;-74
2021/10/07 00:39:04;;;;;;;2.53;1.02;;;11.20;99.90;;;;;;4980342;28;20033;-73
2021/10/07 00:41:31;;;;;;;4.25;1.33;;;11.10;99.90;;;;;;4976793;28;20042;-71
2021/10/07 00:44:03;;;;;;;1.83;1.20;;;11.10;99.90;;;;;;4976705;28;20411;-73
2021/10/07 00:46:29;;;;;;;3.83;1.15;;;11.10;99.90;;;;;;4977011;28;20557;-72
2021/10/07 00:48:54;;;;;;;2.25;1.05;;;11.10;99.90;;;;;;4976723;28;20042;-73
2021/10/07 00:51:20;;;;;;;2.65;1.60;;;11.10;99.90;;;;;;4975966;28;20066;-73
2021/10/07 00:53:46;;;;;;;2.70;1.15;;;11.10;99.90;;;;;;4976620;28;20019;-72
2021/10/07 00:56:11;;;;;;;2.38;1.10;;;11.10;99.90;;;;;;4975942;28;20054;-73
2021/10/07 00:58:38;;;;;;;2.35;1.17;;;11.10;99.90;;;;;;4977337;28;20093;-73
2021/10/07 01:01:03;;;;;;;2.22;1.02;;;11.10;99.90;;;;;;4977629;28;20031;-73
2021/10/07 01:03:32;;;;;;;2.70;1.17;;;11.10;99.90;;;;;;4979681;28;20074;-71
2021/10/07 01:05:58;;;;;;;2.25;0.77;;;11.10;99.90;;;;;;4977460;28;20034;-72
2021/10/07 01:08:24;;;;;;;3.28;1.55;;;11.10;99.90;;;;;;5055933;23;20044;-74
2021/10/07 01:10:49;;;;;;;3.40;1.00;;;11.10;99.90;;;;;;5097702;28;20028;-77
2021/10/07 01:13:15;;;;;;;3.00;1.25;;;11.10;99.90;;;;;;5095744;28;20028;-76
2021/10/07 01:15:41;;;;;;;1.55;1.00;;;11.10;99.90;;;;;;5095149;28;20024;-76
2021/10/07 01:18:07;;;;;;;3.20;0.95;;;11.10;99.90;;;;;;5087983;28;20036;-76
2021/10/07 01:20:33;;;;;;;2.88;1.10;;;11.10;99.90;;;;;;5092379;28;20027;-77
2021/10/07 01:22:58;;;;;;;2.05;0.90;;;11.10;99.90;;;;;;5095783;28;20027;-75
2021/10/07 01:25:24;;;;;;;3.33;0.90;;;11.10;99.90;;;;;;5076247;28;20027;-76
2021/10/07 01:27:55;;;;;;;4.07;1.00;;;11.10;99.90;;;;;;5094991;28;20038;-76
2021/10/07 01:30:21;;;;;;;3.47;1.08;;;11.20;99.90;;;;;;5092531;28;20413;-78
2021/10/07 01:32:47;;;;;;;3.40;1.70;;;11.20;99.90;;;;;;5095647;28;20031;-75
2021/10/07 01:35:12;;;;;;;1.27;1.02;;;11.20;99.90;;;;;;5094669;28;20055;-75
2021/10/07 01:37:38;;;;;;;3.38;1.17;;;11.20;99.90;;;;;;5056440;28;20450;-75
2021/10/07 01:40:04;;;;;;;1.52;1.02;;;11.20;99.90;;;;;;5076098;28;20034;-75
2021/10/07 01:42:30;;;;;;;1.25;1.08;;;11.20;99.90;;;;;;5094781;28;20105;-75
2021/10/07 01:44:56;;;;;;;3.05;1.08;;;11.20;99.90;;;;;;5090236;28;20028;-75
2021/10/07 01:47:21;;;;;;;1.30;1.10;;;11.20;99.90;;;;;;5091406;28;20020;-76
2021/10/07 01:49:47;;;;;;;2.83;0.95;;;11.20;99.90;;;;;;5087919;28;20097;-75
2021/10/07 01:52:12;;;;;;;1.73;0.88;;;11.20;99.90;;;;;;5093375;28;20089;-77
2021/10/07 01:54:38;;;;;;;3.03;1.75;;;11.20;99.90;;;;;;5091379;28;20051;-76
2021/10/07 01:57:04;;;;;;;3.13;1.33;;;11.30;99.90;;;;;;5092371;28;20032;-75
2021/10/07 01:59:29;;;;;;;2.90;1.25;;;11.30;99.90;;;;;;5097651;28;20052;-75
2021/10/07 02:01:55;;;;;;;1.40;1.15;;;11.30;99.90;;;;;;5097056;28;20085;-75
2021/10/07 02:04:21;;;;;;;1.52;1.15;;;11.20;99.90;;;;;;5087422;28;20024;-75
2021/10/07 02:06:46;;;;;;;1.67;1.08;;;11.20;99.90;;;;;;5072750;28;20025;-75
2021/10/07 02:09:12;;;;;;;3.92;1.30;;;11.30;99.90;;;;;;5090126;28;20031;-75
2021/10/07 02:11:37;;;;;;;2.17;1.10;;;11.20;99.90;;;;;;5094208;28;20059;-75
2021/10/07 02:14:04;;;;;;;1.42;0.90;;;11.30;99.90;;;;;;5093733;28;20078;-74
2021/10/07 02:16:31;;;;;;;2.80;1.00;;;11.30;99.90;;;;;;5093152;28;20032;-74
2021/10/07 02:18:57;;;;;;;2.95;1.00;;;11.30;99.90;;;;;;5067275;28;20025;-75
2021/10/07 02:21:23;;;;;;;1.33;0.80;;;11.30;99.90;;;;;;5074143;28;20027;-75
2021/10/07 02:23:49;;;;;;;1.92;1.00;;;11.30;99.90;;;;;;5093703;28;20522;-75
2021/10/07 02:26:14;;;;;;;2.88;1.20;;;11.30;99.90;;;;;;5093971;28;20056;-74
2021/10/07 02:28:40;;;;;;;2.25;1.05;;;11.30;99.90;;;;;;5092657;28;20475;-75
2021/10/07 02:31:06;;;;;;;1.35;1.15;;;11.30;99.90;;;;;;5093620;28;20039;-77
2021/10/07 02:33:32;;;;;;;1.42;0.70;;;11.30;99.90;;;;;;5093722;28;20051;-76
2021/10/07 02:35:58;;;;;;;2.63;1.00;;;11.30;99.90;;;;;;5092992;28;20032;-75
2021/10/07 02:38:23;;;;;;;2.55;1.85;;;11.30;99.90;;;;;;5092963;28;20480;-75
2021/10/07 02:40:49;;;;;;;3.88;1.13;;;11.30;99.90;;;;;;5093291;28;20027;-75
2021/10/07 02:43:14;;;;;;;1.40;1.10;;;11.30;99.90;;;;;;5092745;28;20531;-75
2021/10/07 02:45:40;;;;;;;2.28;1.52;;;11.20;99.90;;;;;;5092751;28;20435;-75
2021/10/07 02:48:06;;;;;;;3.33;1.65;;;11.20;99.90;;;;;;5093703;28;20480;-75
2021/10/07 02:50:31;;;;;;;3.20;1.00;;;11.20;99.90;;;;;;5092869;28;20028;-75
2021/10/07 02:52:57;;;;;;;2.92;1.10;;;11.10;99.90;;;;;;5074362;28;20097;-75
2021/10/07 02:55:23;;;;;;;3.80;1.25;;;11.10;99.90;;;;;;5072045;28;20028;-76
2021/10/07 02:57:48;;;;;;;1.67;1.20;;;11.10;99.90;;;;;;5093141;28;20034;-75
2021/10/07 03:00:16;;;;;;;2.28;1.08;;;11.10;99.90;;;;;;5092872;28;20020;-75
2021/10/07 03:02:42;;;;;;;2.75;1.25;;;11.10;99.90;;;;;;5090313;28;20075;-75
2021/10/07 03:05:08;;;;;;;1.80;1.00;;;11.10;99.90;;;;;;5092142;28;20047;-75
2021/10/07 03:07:34;;;;;;;1.40;1.08;;;11.10;99.90;;;;;;5092758;28;20036;-75
2021/10/07 03:10:00;;;;;;;3.75;1.50;;;11.10;99.90;;;;;;5092772;28;20181;-75
2021/10/07 03:12:25;;;;;;;2.92;1.52;;;11.20;99.90;;;;;;5092547;28;20057;-75
2021/10/07 03:14:51;;;;;;;1.58;0.95;;;11.10;99.90;;;;;;5092405;28;20054;-75
2021/10/07 03:17:16;;;;;;;2.05;1.30;;;11.10;99.90;;;;;;5096078;28;20028;-75
2021/10/07 03:19:43;;;;;;;1.77;1.02;;;11.10;99.90;;;;;;5093332;28;20024;-75
2021/10/07 03:22:09;;;;;;;4.80;1.10;;;11.10;99.90;;;;;;5091696;28;20036;-74
2021/10/07 03:24:35;;;;;;;1.92;1.25;;;11.10;99.90;;;;;;5092809;28;20075;-76
2021/10/07 03:27:03;;;;;;;1.80;1.20;;;11.10;99.90;;;;;;5092538;28;20028;-76
2021/10/07 03:29:30;;;;;;;3.83;1.63;;;11.10;99.90;;;;;;5069586;28;20036;-75
2021/10/07 03:31:56;;;;;;;3.20;1.30;;;11.10;99.90;;;;;;5073644;28;20024;-78
2021/10/07 03:34:21;;;;;;;1.70;1.20;;;11.10;99.90;;;;;;5092238;28;20020;-76
2021/10/07 03:36:47;;;;;;;1.60;0.90;;;11.10;99.90;;;;;;5092474;28;20028;-75
2021/10/07 03:39:13;;;;;;;1.33;0.77;;;11.10;99.90;;;;;;5092758;28;20020;-76
2021/10/07 03:41:38;;;;;;;2.70;1.00;;;11.10;99.90;;;;;;5093040;28;20492;-76
2021/10/07 03:44:04;;;;;;;3.67;0.98;;;11.10;99.90;;;;;;5091673;28;20028;-75
2021/10/07 03:46:29;;;;;;;2.65;1.40;;;11.10;99.90;;;;;;5073849;28;20024;-75
2021/10/07 03:48:55;;;;;;;2.75;1.48;;;11.10;99.90;;;;;;5092290;28;20027;-75
2021/10/07 03:51:21;;;;;;;2.80;0.90;;;11.10;99.90;;;;;;5092151;28;20031;-76
2021/10/07 03:53:46;;;;;;;1.35;1.23;;;11.10;99.90;;;;;;5087443;28;20031;-76
2021/10/07 03:56:12;;;;;;;4.18;1.90;;;11.10;99.90;;;;;;5092133;28;20036;-75
2021/10/07 03:58:37;;;;;;;3.45;1.38;;;11.10;99.90;;;;;;5091074;28;20016;-77
2021/10/07 04:01:03;;;;;;;1.75;1.00;;;11.10;99.90;;;;;;5092051;28;20031;-75
2021/10/07 04:03:29;;;;;;;7.93;5.97;;;11.10;99.90;;;;;;5092240;28;20021;-75
2021/10/07 04:05:56;;;;;;;1.60;0.98;;;11.10;99.90;;;;;;5095545;28;20020;-75
2021/10/07 04:08:22;;;;;;;3.45;1.35;;;11.10;99.90;;;;;;5093465;28;20124;-75
2021/10/07 04:10:51;;;;;;;1.23;1.05;;;11.20;99.90;;;;;;5093247;28;20024;-76
2021/10/07 04:13:21;;;;;;;2.28;1.00;;;11.10;99.90;;;;;;5075396;28;20131;-75
2021/10/07 04:15:48;;;;;;;2.95;1.05;;;11.10;99.90;;;;;;5095209;28;20077;-76
2021/10/07 04:18:17;;;;;;;5.05;1.27;;;11.10;99.90;;;;;;5097114;28;20047;-75
2021/10/07 04:20:44;;;;;;;1.30;1.00;;;11.10;99.90;;;;;;5087004;28;20133;-76
2021/10/07 04:23:11;;;;;;;2.35;1.02;;;11.10;99.90;;;;;;5092278;28;20035;-74
2021/10/07 04:25:37;;;;;;;4.18;1.08;;;11.10;99.90;;;;;;5092045;28;20490;-75
2021/10/07 04:28:06;;;;;;;2.33;1.40;;;11.10;99.90;;;;;;5092366;28;20064;-75
2021/10/07 04:30:34;;;;;;;1.35;1.10;;;11.10;99.90;;;;;;5073100;28;20107;-76
2021/10/07 04:33:01;;;;;;;2.58;1.23;;;11.10;99.90;;;;;;5070772;28;20029;-75
2021/10/07 04:35:26;;;;;;;6.03;1.90;;;11.10;99.90;;;;;;5091272;28;20047;-75
2021/10/07 04:37:52;;;;;;;2.45;1.52;;;11.10;99.90;;;;;;5088404;28;20056;-75
2021/10/07 04:40:17;;;;;;;2.53;1.63;;;11.10;99.90;;;;;;5092394;28;20024;-75
2021/10/07 04:42:43;;;;;;;3.95;1.70;;;11.10;99.90;;;;;;5091799;28;20498;-75
2021/10/07 04:45:08;;;;;;;4.93;1.95;;;11.20;99.90;;;;;;5091625;28;20558;-75
2021/10/07 04:47:34;;;;;;;2.67;1.40;;;11.20;99.90;;;;;;5091628;28;20032;-75
2021/10/07 04:50:00;;;;;;;4.43;1.60;;;11.30;99.90;;;;;;5092350;28;20071;-76
2021/10/07 04:52:25;;;;;;;3.53;1.40;;;11.40;99.90;;;;;;5095004;28;20418;-75
2021/10/07 04:54:51;;;;;;;3.83;1.60;;;11.30;99.90;;;;;;5093046;28;20062;-75
2021/10/07 04:57:16;;;;;;;4.55;1.60;;;11.30;99.90;;;;;;5092376;28;20027;-76
2021/10/07 04:59:42;;;;;;;4.90;1.45;;;11.20;99.90;;;;;;5090223;28;20391;-76
2021/10/07 05:02:08;;;;;;;3.83;1.67;;;11.10;99.90;;;;;;5091367;28;20107;-75
2021/10/07 05:04:33;;;;;;;2.25;1.83;;;11.10;99.90;;;;;;5091168;28;20491;-76
2021/10/07 05:06:59;;;;;;;2.95;1.40;;;11.10;99.90;;;;;;5073867;28;20514;-75
2021/10/07 05:09:24;;;;;;;4.18;1.65;;;11.10;99.90;;;;;;5076995;28;20050;-75
2021/10/07 05:11:50;;;;;;;5.03;1.63;;;11.20;99.90;;;;;;5079412;28;20038;-76
2021/10/07 05:14:15;;;;;;;6.35;1.92;;;11.30;99.90;;;;;;5098715;28;20027;-76
2021/10/07 05:16:41;;;;;;;5.95;1.90;;;11.20;99.90;;;;;;5096157;28;20107;-76
2021/10/07 05:19:06;;;;;;;2.47;1.45;;;11.20;99.90;;;;;;5096347;28;20145;-76
2021/10/07 05:21:32;;;;;;;5.43;1.75;;;11.30;99.90;;;;;;5096577;28;20028;-76
2021/10/07 05:23:57;;;;;;;2.95;1.70;;;11.30;99.90;;;;;;5095890;28;20032;-75
2021/10/07 05:26:23;;;;;;;3.20;1.95;;;11.30;99.90;;;;;;5095033;28;20028;-75
2021/10/07 05:28:49;;;;;;;3.83;1.60;;;11.40;99.90;;;;;;5095112;28;20036;-75
2021/10/07 05:31:14;;;;;;;4.20;1.92;;;11.30;99.90;;;;;;5096101;28;20035;-75
2021/10/07 05:33:40;;;;;;;5.85;1.92;;;11.30;99.90;;;;;;5094924;28;20024;-75
2021/10/07 05:36:05;;;;;;;3.17;1.55;;;11.30;99.90;;;;;;5094889;28;20021;-78
2021/10/07 05:38:31;;;;;;;5.30;1.50;;;11.30;99.90;;;;;;5095044;28;20095;-75
2021/10/07 05:40:59;;;;;;;3.80;1.50;;;11.40;99.90;;;;;;5094392;28;20121;-75
2021/10/07 05:43:25;;;;;;;2.90;1.63;;;11.40;99.90;;;;;;5076685;28;20028;-76
2021/10/07 05:45:50;;;;;;;2.78;1.30;;;11.60;99.90;;;;;;5093237;28;20081;-75
2021/10/07 05:48:16;;;;;;;2.30;1.02;;;11.50;99.90;;;;;;5093176;28;20020;-75
2021/10/07 05:50:42;;;;;;;2.10;1.35;;;11.50;99.90;;;;;;5095194;28;20044;-76
2021/10/07 05:53:09;;;;;;;5.13;2.08;;;11.60;99.90;;;;;;5076332;28;20079;-75
2021/10/07 05:55:35;;;;;;;2.70;1.40;;;11.40;99.90;;;;;;5075533;28;20035;-76
2021/10/07 05:58:00;;;;;;;2.45;1.50;;;11.40;99.90;;;;;;5094019;28;20490;-76
2021/10/07 06:00:26;;;;;;;2.38;1.52;;;11.40;99.90;;;;;;5093550;28;20055;-74
2021/10/07 06:02:51;;;;;;;4.85;2.30;;;11.50;99.90;;;;;;5073218;28;20419;-75
2021/10/07 06:05:17;;;;;;;4.53;1.38;;;11.40;99.90;;;;;;5090437;28;20166;-75
2021/10/07 06:07:43;;;;;;;2.65;1.92;;;11.50;99.90;;;;;;5094221;28;20404;-75
2021/10/07 06:10:09;;;;;;;2.90;1.60;;;11.50;99.90;;;;;;5093791;28;20036;-77
2021/10/07 06:12:35;;;;;;;3.85;1.60;;;11.60;99.90;;;;;;5075145;28;20028;-75
2021/10/07 06:15:02;;;;;;;4.68;1.65;;;11.70;99.90;;;;;;5093202;28;20024;-76
2021/10/07 06:17:27;;;;;;;1.80;1.58;;;11.70;99.90;;;;;;5094037;28;20532;-76
2021/10/07 06:19:57;;;;;;;3.78;1.80;;;11.70;99.90;;;;;;5086332;28;20063;-75
2021/10/07 06:22:22;;;;;;;2.92;1.60;;;11.70;99.90;;;;;;5075697;28;20028;-76
2021/10/07 06:24:48;;;;;;;2.63;1.58;;;11.60;99.90;;;;;;5093938;28;20046;-75
2021/10/07 06:27:13;;;;;;;3.70;1.75;;;11.50;99.90;;;;;;5097095;28;20024;-76
2021/10/07 06:29:39;;;;;;;3.60;2.08;;;11.50;99.90;;;;;;5096139;28;20027;-75
2021/10/07 06:32:05;;;;;;;4.28;2.78;;;11.50;99.90;;;;;;5075623;28;20917;-76
2021/10/07 06:34:31;;;;;;;2.40;1.60;;;11.50;99.90;;;;;;5094235;28;20387;-75
2021/10/07 06:36:56;;;;;;;3.28;2.17;;;11.50;99.90;;;;;;5078174;28;20129;-77
2021/10/07 06:39:22;;;;;;;6.00;2.30;;;11.70;99.90;;;;;;5086239;28;20024;-75
2021/10/07 06:41:48;;;;;;;5.25;2.78;;;11.90;99.90;;;;;;5094606;28;20020;-75
2021/10/07 06:44:14;;;;;;;7.57;2.05;;;11.90;99.90;;;;;;5092582;28;20052;-76
2021/10/07 06:46:40;;;;;;;5.68;2.47;;;11.90;99.90;;;;;;5075617;28;20020;-75
2021/10/07 06:49:05;;;;;;;3.28;1.90;;;12.00;99.90;;;;;;5094309;28;20082;-75
2021/10/07 06:51:31;;;;;;;2.70;2.50;;;12.10;99.90;;;;;;5067918;28;20489;-76
2021/10/07 06:54:00;;;;;;;3.92;2.75;;;12.10;99.90;;;;;;5094664;28;20024;-76
2021/10/07 06:56:26;;;;;;;10.80;5.72;;;12.10;99.90;;;;;;5075510;28;20031;-75
2021/10/07 06:58:53;;;;;;;30.13;18.20;;;12.00;99.90;;;;;;5093597;28;20093;-77
2021/10/07 07:01:28;;;;;;;20.20;13.57;;;12.00;99.90;;;;;;5093659;28;20032;-76
2021/10/07 07:03:56;;;;;;;4.88;3.17;;;12.00;99.90;;;;;;5088856;28;20458;-76
2021/10/07 07:06:24;;;;;;;10.27;5.47;;;11.80;99.90;;;;;;5094530;28;20031;-76
2021/10/07 07:08:50;;;;;;;9.57;5.93;;;11.70;99.90;;;;;;5088036;22;20103;-74
2021/10/07 07:11:16;;;;;;;8.10;3.97;;;11.60;99.90;;;;;;5047907;28;20389;-75
2021/10/07 07:13:44;;;;;;;8.93;4.75;;;11.70;99.90;;;;;;5052443;28;20028;-76
2021/10/07 07:16:10;;;;;;;5.15;3.80;;;11.60;99.90;;;;;;5048925;28;20112;-76
2021/10/07 07:18:36;;;;;;;6.60;4.43;;;11.70;99.90;;;;;;5037483;28;20037;-76
2021/10/07 07:21:01;;;;;;;7.05;4.00;;;11.70;99.90;;;;;;5032940;28;20029;-76
2021/10/07 07:23:27;;;;;;;5.05;3.85;;;11.80;99.90;;;;;;5031722;28;20033;-76
2021/10/07 07:25:53;;;;;;;4.93;4.43;;;11.70;99.90;;;;;;5047045;28;20378;-76
2021/10/07 07:28:18;;;;;;;4.72;4.22;;;11.80;99.90;;;;;;5031786;28;20033;-76
2021/10/07 07:30:44;;;;;;;7.97;4.88;;;11.80;99.90;;;;;;5030722;28;20018;-75
2021/10/07 07:33:10;;;;;;;7.47;5.28;;;11.70;99.90;;;;;;5031105;28;20033;-76
2021/10/07 07:35:35;;;;;;;12.20;5.53;;;11.80;99.90;;;;;;5031848;28;20548;-75
2021/10/07 07:38:04;;;;;;;10.73;5.60;;;11.90;99.90;;;;;;5032775;28;20378;-75
2021/10/07 07:40:30;;;;;;;49.33;11.60;;;11.90;99.90;;;;;;5044574;28;20022;-75
2021/10/07 07:42:56;;;;;;;22.92;7.93;;;11.90;99.90;;;;;;5045259;28;20022;-76
2021/10/07 07:45:22;;;;;;;15.73;6.85;;;12.20;99.90;;;;;;5041389;28;20097;-76
2021/10/07 07:47:47;;;;;;;10.23;5.70;;;12.10;99.90;;;;;;5050411;28;20064;-76
2021/10/07 07:50:13;;;;;;;13.15;6.80;;;12.10;99.90;;;;;;5048033;28;20397;-75
2021/10/07 07:52:39;;;;;;;6.75;5.00;;;12.20;99.90;;;;;;5038737;28;20040;-75
2021/10/07 07:55:06;;;;;;;9.35;5.40;;;12.20;99.90;;;;;;5039214;28;20026;-75
2021/10/07 07:57:32;;;;;;;8.38;5.53;;;12.30;99.90;;;;;;5035929;28;20017;-76
2021/10/07 07:59:58;;;;;;;6.32;5.65;;;12.30;99.90;;;;;;5032497;28;20028;-75
2021/10/07 08:02:24;;;;;;;7.65;5.57;;;12.20;99.90;;;;;;5030480;28;20025;-75
2021/10/07 08:04:51;;;;;;;12.82;5.78;;;12.30;99.90;;;;;;5034849;28;20121;-75
2021/10/07 08:07:17;;;;;;;8.35;6.05;;;12.40;99.90;;;;;;5034378;28;20044;-74
2021/10/07 08:09:46;;;;;;;11.05;6.03;;;12.50;99.90;;;;;;5044908;28;20053;-76
2021/10/07 08:12:13;;;;;;;10.25;6.63;;;12.50;99.90;;;;;;5044696;28;20396;-75
2021/10/07 08:14:46;;;;;;;7.70;6.85;;;12.50;99.90;;;;;;5037262;28;20025;-76
2021/10/07 08:17:13;;;;;;;7.18;6.30;;;12.50;99.90;;;;;;5025879;28;20034;-77
2021/10/07 08:19:39;;;;;;;8.95;7.20;;;12.50;99.90;;;;;;5038032;28;20021;-75
2021/10/07 08:22:05;;;;;;;14.15;7.90;;;12.70;99.90;;;;;;5037793;28;20044;-75
2021/10/07 08:24:32;;;;;;;7.85;7.07;;;13.20;99.90;;;;;;5032202;28;20338;-75
2021/10/07 08:27:04;;;;;;;7.20;6.53;;;13.40;99.90;;;;;;5033619;28;20394;-76
2021/10/07 08:29:30;;;;;;;7.90;7.05;;;13.50;99.90;;;;;;5036784;28;20485;-75
2021/10/07 08:31:56;;;;;;;8.30;7.20;;;13.20;99.90;;;;;;5035414;28;20116;-75
2021/10/07 08:34:22;;;;;;;7.63;6.72;;;13.40;99.90;;;;;;5033177;28;20048;-76
2021/10/07 08:36:48;;;;;;;8.20;7.03;;;13.70;99.90;;;;;;5027665;28;20068;-75
2021/10/07 08:39:15;;;;;;;9.43;6.80;;;14.10;99.90;;;;;;5030924;28;20025;-75
2021/10/07 08:41:45;;;;;;;7.68;6.90;;;14.20;99.90;;;;;;5034232;28;20033;-76
2021/10/07 08:44:14;;;;;;;8.20;6.75;;;14.00;99.90;;;;;;5036361;28;20021;-76
2021/10/07 08:46:41;;;;;;;10.98;7.53;;;13.90;99.90;;;;;;5036803;28;20071;-76
2021/10/07 08:49:14;;;;;;;15.13;6.80;;;14.30;99.90;;;;;;5037079;28;20112;-76
2021/10/07 08:51:40;;;;;;;9.73;7.40;;;14.60;99.90;;;;;;5036439;28;20061;-76
2021/10/07 08:54:06;;;;;;;7.43;6.72;;;14.60;99.90;;;;;;5036332;28;20044;-75
2021/10/07 08:56:31;;;;;;;8.23;7.30;;;14.80;99.90;;;;;;5036025;28;20021;-76
2021/10/07 08:59:00;;;;;;;7.45;6.75;;;14.70;99.90;;;;;;5031461;28;20025;-76
2021/10/07 09:01:43;;;;;;;10.13;7.47;;;14.60;99.90;;;;;;5034256;28;20558;-76
2021/10/07 09:04:25;;;;;;;8.80;7.00;;;14.40;99.90;;;;;;5022861;28;20135;-76
2021/10/07 09:06:59;;;;;;;6.45;5.88;;;14.40;99.90;;;;;;5035351;28;20040;-76
2021/10/07 09:09:26;;;;;;;6.45;5.60;;;14.40;99.90;;;;;;5049714;28;20496;-75
2021/10/07 09:11:54;;;;;;;7.05;5.68;;;14.60;99.90;;;;;;5049790;28;20184;-75
2021/10/07 09:14:26;;;;;;;7.85;6.13;;;14.50;99.90;;;;;;5032904;28;20025;-75
2021/10/07 09:16:54;;;;;;;5.68;5.22;;;14.10;99.90;;;;;;5034556;28;20048;-75
2021/10/07 09:19:25;;;;;;;6.78;6.18;;;14.50;99.90;;;;;;5034855;28;20028;-75
2021/10/07 09:21:54;;;;;;;9.40;7.32;;;14.70;99.90;;;;;;5034024;28;20029;-76
2021/10/07 09:24:38;;;;;;;9.13;6.90;;;14.60;99.90;;;;;;5034654;28;20040;-76
2021/10/07 09:27:07;;;;;;;7.45;6.72;;;14.80;99.90;;;;;;5030732;28;20424;-76
2021/10/07 09:29:43;;;;;;;7.80;6.70;;;14.60;99.90;;;;;;5035977;28;20036;-77
2021/10/07 09:32:10;;;;;;;7.55;6.85;;;14.40;99.90;;;;;;5030813;28;20028;-76
2021/10/07 09:34:44;;;;;;;6.05;5.45;;;14.10;99.90;;;;;;5027826;28;20101;-75
2021/10/07 09:37:35;;;;;;;5.75;5.25;;;14.20;99.90;;;;;;5034368;28;20021;-75
2021/10/07 09:40:03;;;;;;;;;;;14.60;99.90;;;;;;5034386;28;20215;-76
2021/10/07 09:42:32;;;;;;;6.22;5.72;;;14.50;99.90;;;;;;5035424;28;20035;-76
2021/10/07 09:45:07;;;;;;;6.28;5.75;;;14.70;99.90;;;;;;5034224;28;20116;-76
2021/10/07 09:47:36;;;;;;;7.22;5.70;;;14.80;99.90;;;;;;5035322;28;20025;-76
2021/10/07 09:50:24;;;;;;;6.95;6.25;;;14.80;99.90;;;;;;5034434;28;20502;-75
2021/10/07 09:52:53;;;;;;;6.40;5.22;;;14.90;99.90;;;;;;5029606;28;20566;-75
2021/10/07 09:55:22;;;;;;;6.65;6.03;;;15.10;99.90;;;;;;5040231;28;20021;-75
2021/10/07 09:57:53;;;;;;;9.27;5.97;;;15.10;99.90;;;;;;5028672;28;20025;-74
2021/10/07 10:00:20;;;;;;;9.48;6.18;;;14.60;99.90;;;;;;5036968;28;20077;-73
2021/10/07 10:02:46;;;;;;;7.22;6.03;;;14.60;99.90;;;;;;5034616;28;20044;-74
2021/10/07 10:05:13;;;;;;;7.38;5.30;;;14.20;99.90;;;;;;5043404;28;20033;-75
2021/10/07 10:07:43;;;;;;;7.20;5.40;;;14.40;99.90;;;;;;5053181;28;20048;-74
2021/10/07 10:10:10;;;;;;;7.30;5.63;;;14.50;99.90;;;;;;5042727;28;20029;-74
2021/10/07 10:12:35;;;;;;;8.13;5.28;;;14.40;99.90;;;;;;5052821;28;20034;-74
2021/10/07 10:15:03;;;;;;;6.55;5.65;;;14.40;99.90;;;;;;5046072;28;20037;-75
2021/10/07 10:17:29;;;;;;;5.30;4.63;;;14.10;99.90;;;;;;5037167;28;20039;-75
2021/10/07 10:19:57;;;;;;;7.15;5.20;;;14.00;99.90;;;;;;5034677;28;20551;-74
2021/10/07 10:22:24;;;;;;;6.35;5.75;;;14.10;99.90;;;;;;5034652;28;20100;-75
2021/10/07 10:24:51;;;;;;;8.18;6.28;;;14.30;99.90;;;;;;5034713;28;20116;-75
2021/10/07 10:27:17;;;;;;;7.18;6.00;;;14.40;99.90;;;;;;5034377;28;20394;-75
2021/10/07 10:29:43;;;;;;;7.07;6.38;;;14.50;99.90;;;;;;5034026;28;20554;-75
2021/10/07 10:32:12;;;;;;;7.25;6.53;;;14.60;99.90;;;;;;5033001;28;20120;-75
2021/10/07 10:34:45;;;;;;;7.20;6.18;;;14.50;99.90;;;;;;5026848;28;20025;-75
2021/10/07 10:37:13;;;;;;;7.40;6.45;;;14.30;99.90;;;;;;5033419;28;20095;-75
2021/10/07 10:39:47;;;;;;;7.45;5.53;;;14.20;99.90;;;;;;5032382;28;20021;-75
2021/10/07 10:42:22;;;;;;;9.15;6.60;;;14.30;99.90;;;;;;5034351;28;20026;-75
2021/10/07 10:44:57;;;;;;;5.93;5.40;;;14.70;99.90;;;;;;5025918;28;20035;-75
2021/10/07 10:47:26;;;;;;;8.52;5.22;;;15.00;99.90;;;;;;5034084;28;20807;-75
2021/10/07 10:49:51;;;;;;;5.88;5.38;;;15.40;99.90;;;;;;5039829;28;20099;-75
2021/10/07 10:52:31;;;;;;;6.95;5.43;;;15.30;99.90;;;;;;5035167;28;20029;-75
2021/10/07 10:55:06;;;;;;;5.85;5.22;;;15.40;99.90;;;;;;5034287;28;20022;-76
2021/10/07 10:57:34;;;;;;;7.80;6.25;;;15.70;99.90;;;;;;5032058;28;20099;-76
2021/10/07 11:00:13;;;;;;;5.63;5.13;;;15.40;99.90;;;;;;5032910;28;20039;-76
2021/10/07 11:02:56;;;;;;;6.30;5.43;;;15.60;99.90;;;;;;5032271;28;20389;-75
2021/10/07 11:05:24;;;;;;;6.53;4.03;;;16.00;99.90;;;;;;5034109;28;20103;-76
2021/10/07 11:08:13;;;;;;;6.38;5.78;;;16.20;99.90;;;;;;5033214;28;20164;-76
2021/10/07 11:10:44;;;;;;;6.13;4.72;;;15.80;99.90;;;;;;5030207;28;20118;-76
2021/10/07 11:13:16;;;;;;;;;;;15.60;99.90;;;;;;5032986;28;20316;-76
2021/10/07 11:15:46;;;;;;;5.30;4.80;;;15.70;99.90;;;;;;5053278;28;19893;-76
2021/10/07 11:18:12;;;;;;;5.32;4.80;;;15.50;99.90;;;;;;5049377;28;20048;-75
2021/10/07 11:20:37;;;;;;;4.72;4.32;;;15.20;99.90;;;;;;5048080;28;20025;-74
2021/10/07 11:23:13;;;;;;;6.25;4.20;;;15.70;99.90;;;;;;5048818;28;20052;-75
2021/10/07 11:25:48;;;;;;;4.40;3.42;;;16.00;99.90;;;;;;5053419;28;20017;-75
2021/10/07 11:28:17;;;;;;;4.05;3.65;;;16.00;99.90;;;;;;5047465;28;20030;-75
2021/10/07 11:30:45;;;;;;;3.88;3.55;;;15.70;99.90;;;;;;5055646;28;20033;-74
2021/10/07 11:33:11;;;;;;;5.32;3.60;;;16.00;99.90;;;;;;5055052;28;20017;-74
2021/10/07 11:35:38;;;;;;;4.80;3.55;;;16.10;99.90;;;;;;5054872;28;20037;-74
2021/10/07 11:38:13;;;;;;;3.85;3.28;;;16.10;99.90;;;;;;5043696;28;20052;-74
2021/10/07 11:40:44;;;;;;;4.60;3.30;;;15.60;99.90;;;;;;5039695;28;20036;-75
2021/10/07 11:43:17;;;;;;;3.72;3.33;;;15.00;99.90;;;;;;5035921;28;20033;-75
2021/10/07 11:45:50;;;;;;;4.78;3.17;;;15.00;99.90;;;;;;5035009;28;20082;-75
2021/10/07 11:48:17;;;;;;;4.32;3.00;;;15.60;99.90;;;;;;5035385;28;20036;-73
2021/10/07 11:51:04;;;;;;;6.40;3.88;;;16.00;99.90;;;;;;5027505;28;20420;-73
2021/10/07 11:53:38;;;;;;;6.18;3.63;;;16.00;99.90;;;;;;5043246;28;20021;-74
2021/10/07 11:56:15;;;;;;;5.57;4.40;;;15.60;99.90;;;;;;5043029;28;20033;-72
2021/10/07 11:58:51;;;;;;;4.85;3.80;;;15.70;99.90;;;;;;5036714;28;20121;-73
2021/10/07 12:01:17;;;;;;;4.35;3.92;;;16.10;99.90;;;;;;5037165;28;20037;-75
2021/10/07 12:03:43;;;;;;;4.15;3.33;;;16.20;99.90;;;;;;5033077;28;20638;-76
2021/10/07 12:06:12;;;;;;;4.25;3.70;;;16.20;99.90;;;;;;5034061;28;20028;-74
2021/10/07 12:08:46;;;;;;;5.10;3.92;;;16.20;99.90;;;;;;5032900;28;20521;-75
2021/10/07 12:11:22;;;;;;;4.07;3.63;;;15.70;99.90;;;;;;5034083;28;20071;-75
2021/10/07 12:13:50;;;;;;;3.80;3.47;;;15.70;99.90;;;;;;5032966;28;20023;-75
2021/10/07 12:16:17;;;;;;;3.63;3.22;;;15.60;99.90;;;;;;5033799;28;20481;-75
2021/10/07 12:19:14;;;;;;;4.68;3.75;;;15.40;99.90;;;;;;5052875;28;20022;-76
2021/10/07 12:21:42;;;;;;;3.75;3.35;;;15.60;99.90;;;;;;5030433;28;20172;-76
2021/10/07 12:24:12;;;;;;;3.90;3.10;;;15.70;99.90;;;;;;5032189;28;20034;-75
2021/10/07 12:26:42;;;;;;;3.40;3.10;;;15.50;99.90;;;;;;5034880;28;20064;-74
2021/10/07 12:29:34;;;;;;;3.33;3.00;;;15.50;99.90;;;;;;5031766;28;20408;-74
2021/10/07 12:32:05;;;;;;;3.30;3.00;;;15.60;99.90;;;;;;5033260;28;20033;-74
2021/10/07 12:34:31;;;;;;;6.68;3.45;;;16.00;99.90;;;;;;5036198;28;20052;-72
2021/10/07 12:36:59;;;;;;;5.70;3.55;;;16.00;99.90;;;;;;5034361;28;20449;-72
2021/10/07 12:39:29;;;;;;;5.13;3.50;;;15.60;99.90;;;;;;5034519;28;20049;-73
2021/10/07 12:41:58;;;;;;;5.43;3.20;;;15.40;99.90;;;;;;5026009;28;20484;-74
2021/10/07 12:44:28;;;;;;;3.20;2.90;;;15.40;99.90;;;;;;5034124;28;20536;-73
2021/10/07 12:46:56;;;;;;;4.03;3.63;;;15.70;99.90;;;;;;5029645;28;20040;-73
2021/10/07 12:49:36;;;;;;;4.28;3.88;;;16.20;99.90;;;;;;5032759;28;20021;-74
2021/10/07 12:52:10;;;;;;;5.00;4.15;;;16.10;99.90;;;;;;5031503;28;20505;-72